sensor_id;sensor_type;location;lat;lon;timestamp;pressure;altitude;pressure_sealevel;temperature;humidity
10638;BME280;47007;49.252;8.904;2024-02-26T00:00:27;97923.03;;;9.30;98.70
10638;BME280;47007;49.252;8.904;2024-02-26T00:01:10;97918.63;;;9.24;98.23
10638;BME280;47007;49.252;8.904;2024-02-26T00:01:52;97926.69;;;9.29;98.80
10638;BME280;47007;49.252;8.904;2024-02-26T00:02:37;97931.16;;;9.28;99.31
10638;BME280;47007;49.252;8.904;2024-02-26T00:03:19;97915.13;;;9.12;99.45
10638;BME280;47007;49.252;8.904;2024-02-26T00:04:01;97926.56;;;9.24;99.53
10638;BME280;47007;49.252;8.904;2024-02-26T00:04:44;97925.59;;;9.18;99.87
10638;BME280;47007;49.252;8.904;2024-02-26T00:05:26;97933.47;;;9.25;100.00
10638;BME280;47007;49.252;8.904;2024-02-26T00:06:08;97936.34;;;9.23;100.00
10638;BME280;47007;49.252;8.904;2024-02-26T00:06:50;97928.03;;;9.20;99.89
10638;BME280;47007;49.252;8.904;2024-02-26T00:07:33;97907.25;;;9.05;100.00
10638;BME280;47007;49.252;8.904;2024-02-26T00:08:14;97915.47;;;9.15;100.00
10638;BME280;47007;49.252;8.904;2024-02-26T00:08:56;97902.56;;;9.07;100.00
10638;BME280;47007;49.252;8.904;2024-02-26T00:09:38;97911.66;;;9.11;100.00
10638;BME280;47007;49.252;8.904;2024-02-26T00:10:20;97928.53;;;9.28;100.00
10638;BME280;47007;49.252;8.904;2024-02-26T00:11:02;97915.03;;;9.18;99.76
10638;BME280;47007;49.252;8.904;2024-02-26T00:11:44;97906.06;;;9.19;99.57
10638;BME280;47007;49.252;8.904;2024-02-26T00:12:25;97936.19;;;9.36;99.27
10638;BME280;47007;49.252;8.904;2024-02-26T00:13:07;97929.06;;;9.37;99.21
10638;BME280;47007;49.252;8.904;2024-02-26T00:13:49;97905.84;;;9.21;99.09
10638;BME280;47007;49.252;8.904;2024-02-26T00:14:31;97896.03;;;9.10;99.26
10638;BME280;47007;49.252;8.904;2024-02-26T00:15:13;97928.31;;;9.30;99.53
10638;BME280;47007;49.252;8.904;2024-02-26T00:15:55;97896.63;;;9.12;99.46
10638;BME280;47007;49.252;8.904;2024-02-26T00:16:42;97926.69;;;9.29;99.53
10638;BME280;47007;49.252;8.904;2024-02-26T00:17:26;97932.94;;;9.34;99.59
10638;BME280;47007;49.252;8.904;2024-02-26T00:18:08;97911.13;;;9.21;99.57
10638;BME280;47007;49.252;8.904;2024-02-26T00:18:50;97929.28;;;9.35;99.55
10638;BME280;47007;49.252;8.904;2024-02-26T00:19:32;97901.59;;;9.20;99.46
10638;BME280;47007;49.252;8.904;2024-02-26T00:20:14;97929.88;;;9.38;99.20
10638;BME280;47007;49.252;8.904;2024-02-26T00:20:56;97917.81;;;9.23;99.20
10638;BME280;47007;49.252;8.904;2024-02-26T00:21:41;97928.03;;;9.38;99.39
10638;BME280;47007;49.252;8.904;2024-02-26T00:22:25;97901.16;;;9.23;99.14
10638;BME280;47007;49.252;8.904;2024-02-26T00:23:07;97931.91;;;9.35;99.19
10638;BME280;47007;49.252;8.904;2024-02-26T00:23:49;97931.59;;;9.44;99.36
10638;BME280;47007;49.252;8.904;2024-02-26T00:24:32;97925.00;;;9.34;99.39
10638;BME280;47007;49.252;8.904;2024-02-26T00:25:14;97930.00;;;9.43;99.00
10638;BME280;47007;49.252;8.904;2024-02-26T00:25:55;97931.81;;;9.42;99.26
10638;BME280;47007;49.252;8.904;2024-02-26T00:26:37;97911.63;;;9.29;99.18
10638;BME280;47007;49.252;8.904;2024-02-26T00:27:19;97909.81;;;9.30;98.99
10638;BME280;47007;49.252;8.904;2024-02-26T00:28:00;97924.91;;;9.41;99.07
10638;BME280;47007;49.252;8.904;2024-02-26T00:28:42;97927.13;;;9.44;99.39
10638;BME280;47007;49.252;8.904;2024-02-26T00:29:25;97935.06;;;9.44;99.16
10638;BME280;47007;49.252;8.904;2024-02-26T00:30:07;97919.28;;;9.38;98.95
10638;BME280;47007;49.252;8.904;2024-02-26T00:30:49;97920.97;;;9.32;99.30
10638;BME280;47007;49.252;8.904;2024-02-26T00:31:32;97916.88;;;9.36;99.21
10638;BME280;47007;49.252;8.904;2024-02-26T00:32:14;97922.59;;;9.33;99.15
10638;BME280;47007;49.252;8.904;2024-02-26T00:32:57;97932.72;;;9.36;99.62
10638;BME280;47007;49.252;8.904;2024-02-26T00:33:39;97913.63;;;9.16;99.82
10638;BME280;47007;49.252;8.904;2024-02-26T00:34:21;97929.94;;;9.31;100.00
10638;BME280;47007;49.252;8.904;2024-02-26T00:35:03;97937.22;;;9.35;99.96
10638;BME280;47007;49.252;8.904;2024-02-26T00:35:45;97906.06;;;9.19;100.00
10638;BME280;47007;49.252;8.904;2024-02-26T00:36:27;97926.63;;;9.35;99.61
10638;BME280;47007;49.252;8.904;2024-02-26T00:37:08;97932.34;;;9.32;100.00
10638;BME280;47007;49.252;8.904;2024-02-26T00:37:50;97909.75;;;9.18;100.00
10638;BME280;47007;49.252;8.904;2024-02-26T00:38:32;97925.22;;;9.33;100.00
10638;BME280;47007;49.252;8.904;2024-02-26T00:39:14;97920.09;;;9.20;100.00
10638;BME280;47007;49.252;8.904;2024-02-26T00:39:56;97913.19;;;9.19;100.00
10638;BME280;47007;49.252;8.904;2024-02-26T00:40:38;97927.88;;;9.33;100.00
10638;BME280;47007;49.252;8.904;2024-02-26T00:41:20;97933.75;;;9.35;100.00
10638;BME280;47007;49.252;8.904;2024-02-26T00:42:02;97923.03;;;9.30;100.00
10638;BME280;47007;49.252;8.904;2024-02-26T00:42:44;97916.59;;;9.26;100.00
10638;BME280;47007;49.252;8.904;2024-02-26T00:43:27;97911.78;;;9.16;99.97
10638;BME280;47007;49.252;8.904;2024-02-26T00:44:09;97926.84;;;9.34;100.00
10638;BME280;47007;49.252;8.904;2024-02-26T00:44:51;97900.19;;;9.17;100.00
10638;BME280;47007;49.252;8.904;2024-02-26T00:45:32;97897.75;;;9.16;100.00
10638;BME280;47007;49.252;8.904;2024-02-26T00:46:14;97918.41;;;9.25;100.00
10638;BME280;47007;49.252;8.904;2024-02-26T00:46:56;97932.13;;;9.34;100.00
10638;BME280;47007;49.252;8.904;2024-02-26T00:47:38;97897.41;;;9.12;100.00
10638;BME280;47007;49.252;8.904;2024-02-26T00:48:22;97908.72;;;9.19;100.00
10638;BME280;47007;49.252;8.904;2024-02-26T00:49:07;97934.19;;;9.32;100.00
10638;BME280;47007;49.252;8.904;2024-02-26T00:49:49;97912.59;;;9.17;100.00
10638;BME280;47007;49.252;8.904;2024-02-26T00:50:31;97937.28;;;9.29;100.00
10638;BME280;47007;49.252;8.904;2024-02-26T00:51:13;97934.19;;;9.32;100.00
10638;BME280;47007;49.252;8.904;2024-02-26T00:51:55;97928.69;;;9.33;100.00
10638;BME280;47007;49.252;8.904;2024-02-26T00:52:37;97927.88;;;9.33;100.00
10638;BME280;47007;49.252;8.904;2024-02-26T00:53:19;97937.84;;;9.31;100.00
10638;BME280;47007;49.252;8.904;2024-02-26T00:54:01;97915.25;;;9.17;100.00
10638;BME280;47007;49.252;8.904;2024-02-26T00:54:44;97926.56;;;9.06;100.00
10638;BME280;47007;49.252;8.904;2024-02-26T00:55:25;97935.28;;;9.06;100.00
10638;BME280;47007;49.252;8.904;2024-02-26T00:56:07;97942.06;;;9.02;100.00
10638;BME280;47007;49.252;8.904;2024-02-26T00:56:49;97912.75;;;8.85;100.00
10638;BME280;47007;49.252;8.904;2024-02-26T00:57:31;97905.94;;;8.78;100.00
10638;BME280;47007;49.252;8.904;2024-02-26T00:58:13;97941.25;;;9.02;100.00
10638;BME280;47007;49.252;8.904;2024-02-26T00:58:54;97946.53;;;9.02;100.00
10638;BME280;47007;49.252;8.904;2024-02-26T00:59:36;97934.34;;;9.00;100.00
10638;BME280;47007;49.252;8.904;2024-02-26T01:00:18;97938.16;;;9.05;100.00
10638;BME280;47007;49.252;8.904;2024-02-26T01:01:00;97922.16;;;8.99;100.00
10638;BME280;47007;49.252;8.904;2024-02-26T01:01:42;97943.75;;;9.15;100.00
10638;BME280;47007;49.252;8.904;2024-02-26T01:02:24;97945.94;;;9.18;100.00
10638;BME280;47007;49.252;8.904;2024-02-26T01:03:05;97951.00;;;9.19;100.00
10638;BME280;47007;49.252;8.904;2024-02-26T01:03:47;97951.81;;;9.20;100.00
10638;BME280;47007;49.252;8.904;2024-02-26T01:04:30;97939.84;;;9.17;100.00
10638;BME280;47007;49.252;8.904;2024-02-26T01:05:12;97950.34;;;9.24;100.00
10638;BME280;47007;49.252;8.904;2024-02-26T01:05:54;97954.41;;;9.26;100.00
10638;BME280;47007;49.252;8.904;2024-02-26T01:06:40;97951.75;;;9.26;100.00
10638;BME280;47007;49.252;8.904;2024-02-26T01:07:22;97934.22;;;9.14;100.00
10638;BME280;47007;49.252;8.904;2024-02-26T01:08:04;97921.84;;;9.08;100.00
10638;BME280;47007;49.252;8.904;2024-02-26T01:08:46;97948.31;;;9.26;100.00
10638;BME280;47007;49.252;8.904;2024-02-26T01:09:28;97946.47;;;9.26;100.00
10638;BME280;47007;49.252;8.904;2024-02-26T01:10:09;97933.31;;;9.20;100.00
10638;BME280;47007;49.252;8.904;2024-02-26T01:10:51;97926.13;;;9.09;100.00
10638;BME280;47007;49.252;8.904;2024-02-26T01:11:33;97962.69;;;9.30;100.00
10638;BME280;47007;49.252;8.904;2024-02-26T01:12:15;97937.94;;;9.24;100.00
10638;BME280;47007;49.252;8.904;2024-02-26T01:12:57;97963.88;;;9.34;100.00
10638;BME280;47007;49.252;8.904;2024-02-26T01:13:39;97946.81;;;9.30;100.00
10638;BME280;47007;49.252;8.904;2024-02-26T01:14:20;97953.88;;;9.36;100.00
10638;BME280;47007;49.252;8.904;2024-02-26T01:15:03;97936.72;;;9.27;100.00
10638;BME280;47007;49.252;8.904;2024-02-26T01:15:46;97956.16;;;9.32;100.00
10638;BME280;47007;49.252;8.904;2024-02-26T01:16:28;97927.44;;;9.18;100.00
10638;BME280;47007;49.252;8.904;2024-02-26T01:17:10;97944.84;;;9.25;100.00
10638;BME280;47007;49.252;8.904;2024-02-26T01:17:52;97944.25;;;9.23;100.00
10638;BME280;47007;49.252;8.904;2024-02-26T01:18:34;97956.44;;;9.24;100.00
10638;BME280;47007;49.252;8.904;2024-02-26T01:19:16;97958.88;;;9.26;100.00
10638;BME280;47007;49.252;8.904;2024-02-26T01:19:58;97953.22;;;9.22;100.00
10638;BME280;47007;49.252;8.904;2024-02-26T01:20:40;97942.78;;;9.09;100.00
10638;BME280;47007;49.252;8.904;2024-02-26T01:21:22;97928.25;;;9.00;100.00
10638;BME280;47007;49.252;8.904;2024-02-26T01:22:03;97954.38;;;9.08;100.00
10638;BME280;47007;49.252;8.904;2024-02-26T01:22:45;97934.00;;;8.90;100.00
10638;BME280;47007;49.252;8.904;2024-02-26T01:23:27;97971.25;;;9.07;100.00
10638;BME280;47007;49.252;8.904;2024-02-26T01:24:09;97967.22;;;9.05;100.00
10638;BME280;47007;49.252;8.904;2024-02-26T01:24:50;97943.41;;;8.86;100.00
10638;BME280;47007;49.252;8.904;2024-02-26T01:25:32;97962.06;;;8.91;100.00
10638;BME280;47007;49.252;8.904;2024-02-26T01:26:14;97967.72;;;8.95;100.00
10638;BME280;47007;49.252;8.904;2024-02-26T01:26:56;97946.91;;;8.80;100.00
10638;BME280;47007;49.252;8.904;2024-02-26T01:27:38;97947.81;;;8.74;100.00
10638;BME280;47007;49.252;8.904;2024-02-26T01:28:19;97953.69;;;8.76;100.00
10638;BME280;47007;49.252;8.904;2024-02-26T01:29:01;97961.97;;;8.80;100.00
10638;BME280;47007;49.252;8.904;2024-02-26T01:29:43;97955.50;;;8.76;100.00
10638;BME280;47007;49.252;8.904;2024-02-26T01:30:25;97941.63;;;8.62;100.00
10638;BME280;47007;49.252;8.904;2024-02-26T01:31:09;97962.03;;;8.73;100.00
10638;BME280;47007;49.252;8.904;2024-02-26T01:31:51;97961.00;;;8.74;100.00
10638;BME280;47007;49.252;8.904;2024-02-26T01:32:33;97964.25;;;8.76;100.00
10638;BME280;47007;49.252;8.904;2024-02-26T01:33:15;97950.03;;;8.77;100.00
10638;BME280;47007;49.252;8.904;2024-02-26T01:33:57;97951.47;;;8.73;100.00
10638;BME280;47007;49.252;8.904;2024-02-26T01:34:38;97944.78;;;8.71;100.00
10638;BME280;47007;49.252;8.904;2024-02-26T01:35:20;97955.41;;;8.64;100.00
10638;BME280;47007;49.252;8.904;2024-02-26T01:36:02;97942.91;;;8.53;100.00
10638;BME280;47007;49.252;8.904;2024-02-26T01:36:44;97940.53;;;8.45;100.00
10638;BME280;47007;49.252;8.904;2024-02-26T01:37:26;97942.41;;;8.38;100.00
10638;BME280;47007;49.252;8.904;2024-02-26T01:38:08;97941.88;;;8.22;100.00
10638;BME280;47007;49.252;8.904;2024-02-26T01:38:49;97953.19;;;8.29;100.00
10638;BME280;47007;49.252;8.904;2024-02-26T01:39:31;97950.56;;;8.29;100.00
10638;BME280;47007;49.252;8.904;2024-02-26T01:40:13;97930.72;;;8.20;100.00
10638;BME280;47007;49.252;8.904;2024-02-26T01:40:59;97942.25;;;8.33;100.00
10638;BME280;47007;49.252;8.904;2024-02-26T01:41:41;97953.59;;;8.33;100.00
10638;BME280;47007;49.252;8.904;2024-02-26T01:42:23;97974.63;;;8.46;100.00
10638;BME280;47007;49.252;8.904;2024-02-26T01:43:05;97985.53;;;8.56;100.00
10638;BME280;47007;49.252;8.904;2024-02-26T01:43:46;97983.19;;;8.67;100.00
10638;BME280;47007;49.252;8.904;2024-02-26T01:44:28;97981.38;;;8.67;100.00
10638;BME280;47007;49.252;8.904;2024-02-26T01:45:15;97973.63;;;8.72;100.00
10638;BME280;47007;49.252;8.904;2024-02-26T01:46:07;97993.22;;;8.83;100.00
10638;BME280;47007;49.252;8.904;2024-02-26T01:46:51;98002.72;;;8.90;100.00
10638;BME280;47007;49.252;8.904;2024-02-26T01:47:32;97980.84;;;8.83;100.00
10638;BME280;47007;49.252;8.904;2024-02-26T01:48:15;97991.28;;;8.96;100.00
10638;BME280;47007;49.252;8.904;2024-02-26T01:48:57;97993.72;;;8.98;100.00
10638;BME280;47007;49.252;8.904;2024-02-26T01:49:39;97986.38;;;9.00;100.00
10638;BME280;47007;49.252;8.904;2024-02-26T01:50:22;97975.25;;;8.91;100.00
10638;BME280;47007;49.252;8.904;2024-02-26T01:51:04;97995.69;;;9.02;100.00
10638;BME280;47007;49.252;8.904;2024-02-26T01:51:46;97978.28;;;8.95;100.00
10638;BME280;47007;49.252;8.904;2024-02-26T01:52:27;97974.25;;;8.92;100.00
10638;BME280;47007;49.252;8.904;2024-02-26T01:53:09;97977.06;;;8.97;100.00
10638;BME280;47007;49.252;8.904;2024-02-26T01:53:52;97965.38;;;8.87;100.00
10638;BME280;47007;49.252;8.904;2024-02-26T01:54:37;97985.28;;;9.08;100.00
10638;BME280;47007;49.252;8.904;2024-02-26T01:55:19;97964.47;;;8.93;100.00
10638;BME280;47007;49.252;8.904;2024-02-26T01:56:02;97984.25;;;9.09;100.00
10638;BME280;47007;49.252;8.904;2024-02-26T01:56:44;97980.81;;;9.08;100.00
10638;BME280;47007;49.252;8.904;2024-02-26T01:57:27;97974.84;;;8.94;100.00
10638;BME280;47007;49.252;8.904;2024-02-26T01:58:10;97965.88;;;8.95;100.00
10638;BME280;47007;49.252;8.904;2024-02-26T01:58:52;97981.31;;;8.98;100.00
10638;BME280;47007;49.252;8.904;2024-02-26T01:59:34;97973.06;;;8.88;100.00
10638;BME280;47007;49.252;8.904;2024-02-26T02:00:17;97970.69;;;8.80;100.00
10638;BME280;47007;49.252;8.904;2024-02-26T02:01:00;97941.00;;;8.60;100.00
10638;BME280;47007;49.252;8.904;2024-02-26T02:01:44;97950.97;;;8.58;100.00
10638;BME280;47007;49.252;8.904;2024-02-26T02:02:29;97945.09;;;8.56;100.00
10638;BME280;47007;49.252;8.904;2024-02-26T02:03:11;97963.09;;;8.65;100.00
10638;BME280;47007;49.252;8.904;2024-02-26T02:03:54;97959.69;;;8.65;100.00
10638;BME280;47007;49.252;8.904;2024-02-26T02:04:38;97944.56;;;8.47;100.00
10638;BME280;47007;49.252;8.904;2024-02-26T02:05:21;97976.19;;;8.54;100.00
10638;BME280;47007;49.252;8.904;2024-02-26T02:06:04;97977.06;;;8.48;100.00
10638;BME280;47007;49.252;8.904;2024-02-26T02:06:47;97972.19;;;8.45;100.00
10638;BME280;47007;49.252;8.904;2024-02-26T02:07:29;97968.00;;;8.30;100.00
10638;BME280;47007;49.252;8.904;2024-02-26T02:08:12;97979.19;;;8.33;100.00
10638;BME280;47007;49.252;8.904;2024-02-26T02:08:56;97968.28;;;8.22;100.00
10638;BME280;47007;49.252;8.904;2024-02-26T02:09:38;97969.69;;;8.25;100.00
10638;BME280;47007;49.252;8.904;2024-02-26T02:10:20;97950.06;;;8.14;100.00
10638;BME280;47007;49.252;8.904;2024-02-26T02:11:06;97943.31;;;8.18;100.00
10638;BME280;47007;49.252;8.904;2024-02-26T02:11:48;97955.44;;;8.33;100.00
10638;BME280;47007;49.252;8.904;2024-02-26T02:12:30;97963.88;;;8.48;100.00
10638;BME280;47007;49.252;8.904;2024-02-26T02:13:14;97955.94;;;8.48;100.00
10638;BME280;47007;49.252;8.904;2024-02-26T02:13:56;97961.16;;;8.54;100.00
10638;BME280;47007;49.252;8.904;2024-02-26T02:14:38;97960.72;;;8.57;100.00
10638;BME280;47007;49.252;8.904;2024-02-26T02:15:19;97960.34;;;8.54;100.00
10638;BME280;47007;49.252;8.904;2024-02-26T02:16:02;97946.34;;;8.53;100.00
10638;BME280;47007;49.252;8.904;2024-02-26T02:16:44;97956.06;;;8.59;100.00
10638;BME280;47007;49.252;8.904;2024-02-26T02:17:26;97947.91;;;8.61;100.00
10638;BME280;47007;49.252;8.904;2024-02-26T02:18:09;97972.00;;;8.71;100.00
10638;BME280;47007;49.252;8.904;2024-02-26T02:18:51;97944.50;;;8.54;100.00
10638;BME280;47007;49.252;8.904;2024-02-26T02:19:33;97950.25;;;8.51;100.00
10638;BME280;47007;49.252;8.904;2024-02-26T02:20:16;97964.03;;;8.53;100.00
10638;BME280;47007;49.252;8.904;2024-02-26T02:21:01;97962.41;;;8.52;100.00
10638;BME280;47007;49.252;8.904;2024-02-26T02:21:43;97967.69;;;8.52;100.00
10638;BME280;47007;49.252;8.904;2024-02-26T02:22:25;97961.97;;;8.55;100.00
10638;BME280;47007;49.252;8.904;2024-02-26T02:23:06;97957.94;;;8.52;100.00
10638;BME280;47007;49.252;8.904;2024-02-26T02:23:48;97949.38;;;8.57;100.00
10638;BME280;47007;49.252;8.904;2024-02-26T02:24:30;97958.63;;;8.66;100.00
10638;BME280;47007;49.252;8.904;2024-02-26T02:25:13;97968.63;;;8.64;100.00
10638;BME280;47007;49.252;8.904;2024-02-26T02:25:56;97939.94;;;8.43;100.00
10638;BME280;47007;49.252;8.904;2024-02-26T02:26:37;97949.31;;;8.39;100.00
10638;BME280;47007;49.252;8.904;2024-02-26T02:27:20;97947.38;;;8.21;100.00
10638;BME280;47007;49.252;8.904;2024-02-26T02:28:02;97954.97;;;8.11;100.00
10638;BME280;47007;49.252;8.904;2024-02-26T02:28:44;97969.97;;;8.10;100.00
10638;BME280;47007;49.252;8.904;2024-02-26T02:29:27;97939.06;;;7.86;100.00
10638;BME280;47007;49.252;8.904;2024-02-26T02:30:10;97969.63;;;8.00;100.00
10638;BME280;47007;49.252;8.904;2024-02-26T02:30:52;97943.97;;;7.82;100.00
10638;BME280;47007;49.252;8.904;2024-02-26T02:31:34;97958.28;;;7.93;100.00
10638;BME280;47007;49.252;8.904;2024-02-26T02:32:17;97954.28;;;7.90;100.00
10638;BME280;47007;49.252;8.904;2024-02-26T02:32:59;97969.03;;;7.98;100.00
10638;BME280;47007;49.252;8.904;2024-02-26T02:33:42;97962.31;;;8.02;100.00
10638;BME280;47007;49.252;8.904;2024-02-26T02:34:24;97959.03;;;8.07;100.00
10638;BME280;47007;49.252;8.904;2024-02-26T02:35:07;97958.19;;;8.13;100.00
10638;BME280;47007;49.252;8.904;2024-02-26T02:35:48;97951.91;;;8.14;100.00
10638;BME280;47007;49.252;8.904;2024-02-26T02:36:34;97963.81;;;8.23;100.00
10638;BME280;47007;49.252;8.904;2024-02-26T02:37:16;97963.38;;;8.26;100.00
10638;BME280;47007;49.252;8.904;2024-02-26T02:37:57;97944.13;;;8.19;100.00
10638;BME280;47007;49.252;8.904;2024-02-26T02:38:49;97967.41;;;8.28;100.00
10638;BME280;47007;49.252;8.904;2024-02-26T02:39:34;97952.72;;;8.14;100.00
10638;BME280;47007;49.252;8.904;2024-02-26T02:40:16;97933.19;;;7.90;100.00
10638;BME280;47007;49.252;8.904;2024-02-26T02:40:57;97941.91;;;7.91;100.00
10638;BME280;47007;49.252;8.904;2024-02-26T02:41:39;97946.56;;;7.89;100.00
10638;BME280;47007;49.252;8.904;2024-02-26T02:42:22;97963.00;;;7.91;100.00
10638;BME280;47007;49.252;8.904;2024-02-26T02:43:04;97959.75;;;7.89;100.00
10638;BME280;47007;49.252;8.904;2024-02-26T02:43:46;97929.22;;;7.68;100.00
10638;BME280;47007;49.252;8.904;2024-02-26T02:44:28;97940.38;;;7.70;100.00
10638;BME280;47007;49.252;8.904;2024-02-26T02:45:09;97942.78;;;7.72;100.00
10638;BME280;47007;49.252;8.904;2024-02-26T02:45:51;97969.28;;;7.90;100.00
10638;BME280;47007;49.252;8.904;2024-02-26T02:46:33;97968.84;;;7.93;100.00
10638;BME280;47007;49.252;8.904;2024-02-26T02:47:16;97969.44;;;7.95;100.00
10638;BME280;47007;49.252;8.904;2024-02-26T02:47:58;97952.06;;;7.87;100.00
10638;BME280;47007;49.252;8.904;2024-02-26T02:48:41;97947.53;;;7.94;100.00
10638;BME280;47007;49.252;8.904;2024-02-26T02:49:24;97975.84;;;8.12;100.00
10638;BME280;47007;49.252;8.904;2024-02-26T02:50:06;97920.63;;;7.79;100.00
10638;BME280;47007;49.252;8.904;2024-02-26T02:50:48;97964.28;;;8.13;100.00
10638;BME280;47007;49.252;8.904;2024-02-26T02:51:30;97971.94;;;8.21;100.00
10638;BME280;47007;49.252;8.904;2024-02-26T02:52:11;97966.47;;;8.16;100.00
10638;BME280;47007;49.252;8.904;2024-02-26T02:52:53;97981.63;;;8.34;100.00
10638;BME280;47007;49.252;8.904;2024-02-26T02:53:35;97956.31;;;8.20;100.00
10638;BME280;47007;49.252;8.904;2024-02-26T02:54:16;97986.50;;;8.37;100.00
10638;BME280;47007;49.252;8.904;2024-02-26T02:54:58;97992.91;;;8.48;100.00
10638;BME280;47007;49.252;8.904;2024-02-26T02:55:40;97985.16;;;8.53;100.00
10638;BME280;47007;49.252;8.904;2024-02-26T02:56:22;97967.69;;;8.52;100.00
10638;BME280;47007;49.252;8.904;2024-02-26T02:57:04;97975.38;;;8.53;100.00
10638;BME280;47007;49.252;8.904;2024-02-26T02:57:46;97957.25;;;8.39;100.00
10638;BME280;47007;49.252;8.904;2024-02-26T02:58:27;97980.09;;;8.51;100.00
10638;BME280;47007;49.252;8.904;2024-02-26T02:59:09;97964.97;;;8.34;100.00
10638;BME280;47007;49.252;8.904;2024-02-26T02:59:51;97987.22;;;8.44;100.00
10638;BME280;47007;49.252;8.904;2024-02-26T03:00:32;97963.38;;;8.26;100.00
10638;BME280;47007;49.252;8.904;2024-02-26T03:01:14;97961.00;;;8.18;100.00
10638;BME280;47007;49.252;8.904;2024-02-26T03:01:56;97959.81;;;8.14;100.00
10638;BME280;47007;49.252;8.904;2024-02-26T03:02:38;97975.00;;;8.18;100.00
10638;BME280;47007;49.252;8.904;2024-02-26T03:03:20;97972.81;;;8.15;100.00
10638;BME280;47007;49.252;8.904;2024-02-26T03:04:02;97945.28;;;7.98;100.00
10638;BME280;47007;49.252;8.904;2024-02-26T03:04:43;97989.00;;;8.19;100.00
10638;BME280;47007;49.252;8.904;2024-02-26T03:05:25;97967.38;;;8.04;100.00
10638;BME280;47007;49.252;8.904;2024-02-26T03:06:07;97968.03;;;7.99;100.00
10638;BME280;47007;49.252;8.904;2024-02-26T03:06:49;97980.56;;;8.04;100.00
10638;BME280;47007;49.252;8.904;2024-02-26T03:07:31;97984.00;;;8.04;100.00
10638;BME280;47007;49.252;8.904;2024-02-26T03:08:12;97970.47;;;7.94;100.00
10638;BME280;47007;49.252;8.904;2024-02-26T03:08:54;97995.22;;;8.00;100.00
10638;BME280;47007;49.252;8.904;2024-02-26T03:09:36;97997.44;;;8.03;100.00
10638;BME280;47007;49.252;8.904;2024-02-26T03:10:18;97965.88;;;7.83;100.00
10638;BME280;47007;49.252;8.904;2024-02-26T03:11:00;97995.00;;;8.01;100.00
10638;BME280;47007;49.252;8.904;2024-02-26T03:11:42;97989.13;;;7.99;100.00
10638;BME280;47007;49.252;8.904;2024-02-26T03:12:24;97988.31;;;7.99;100.00
10638;BME280;47007;49.252;8.904;2024-02-26T03:13:06;97970.31;;;7.82;100.00
10638;BME280;47007;49.252;8.904;2024-02-26T03:13:48;97973.38;;;7.79;100.00
10638;BME280;47007;49.252;8.904;2024-02-26T03:14:30;98000.56;;;7.86;100.00
10638;BME280;47007;49.252;8.904;2024-02-26T03:15:12;97996.69;;;7.82;100.00
10638;BME280;47007;49.252;8.904;2024-02-26T03:15:53;97983.16;;;7.79;100.00
10638;BME280;47007;49.252;8.904;2024-02-26T03:16:35;98007.44;;;7.87;100.00
10638;BME280;47007;49.252;8.904;2024-02-26T03:17:17;98002.94;;;7.94;100.00
10638;BME280;47007;49.252;8.904;2024-02-26T03:17:59;97976.81;;;7.86;100.00
10638;BME280;47007;49.252;8.904;2024-02-26T03:18:41;97989.53;;;8.03;100.00
10638;BME280;47007;49.252;8.904;2024-02-26T03:19:23;97981.38;;;8.04;100.00
10638;BME280;47007;49.252;8.904;2024-02-26T03:20:08;97989.38;;;8.22;100.00
10638;BME280;47007;49.252;8.904;2024-02-26T03:20:51;97962.28;;;8.09;100.00
10638;BME280;47007;49.252;8.904;2024-02-26T03:21:32;97979.25;;;8.19;100.00
10638;BME280;47007;49.252;8.904;2024-02-26T03:22:14;97988.16;;;8.25;100.00
10638;BME280;47007;49.252;8.904;2024-02-26T03:22:56;97988.59;;;8.22;100.00
10638;BME280;47007;49.252;8.904;2024-02-26T03:23:38;98000.69;;;8.29;100.00
10638;BME280;47007;49.252;8.904;2024-02-26T03:24:20;97983.72;;;8.19;100.00
10638;BME280;47007;49.252;8.904;2024-02-26T03:25:02;97978.06;;;8.15;100.00
10638;BME280;47007;49.252;8.904;2024-02-26T03:25:44;97995.47;;;8.23;100.00
10638;BME280;47007;49.252;8.904;2024-02-26T03:26:28;97986.41;;;8.12;100.00
10638;BME280;47007;49.252;8.904;2024-02-26T03:27:09;97976.91;;;8.05;100.00
10638;BME280;47007;49.252;8.904;2024-02-26T03:27:52;98005.44;;;8.21;100.00
10638;BME280;47007;49.252;8.904;2024-02-26T03:28:33;97999.75;;;8.17;100.00
10638;BME280;47007;49.252;8.904;2024-02-26T03:29:15;97968.41;;;8.03;100.00
10638;BME280;47007;49.252;8.904;2024-02-26T03:29:57;97993.53;;;8.05;100.00
10638;BME280;47007;49.252;8.904;2024-02-26T03:30:39;97990.31;;;8.03;100.00
10638;BME280;47007;49.252;8.904;2024-02-26T03:31:20;97995.59;;;8.03;100.00
10638;BME280;47007;49.252;8.904;2024-02-26T03:32:03;97990.09;;;8.05;100.00
10638;BME280;47007;49.252;8.904;2024-02-26T03:32:45;97982.41;;;8.03;100.00
10638;BME280;47007;49.252;8.904;2024-02-26T03:33:28;97983.44;;;8.02;100.00
10638;BME280;47007;49.252;8.904;2024-02-26T03:34:11;98012.97;;;8.17;100.00
10638;BME280;47007;49.252;8.904;2024-02-26T03:34:54;97999.81;;;8.11;100.00
10638;BME280;47007;49.252;8.904;2024-02-26T03:35:37;97970.66;;;7.99;100.00
10638;BME280;47007;49.252;8.904;2024-02-26T03:36:19;98001.38;;;8.18;100.00
10638;BME280;47007;49.252;8.904;2024-02-26T03:37:01;97993.91;;;8.15;100.00
10638;BME280;47007;49.252;8.904;2024-02-26T03:37:43;98006.22;;;8.28;100.00
10638;BME280;47007;49.252;8.904;2024-02-26T03:38:25;97990.22;;;8.16;100.00
10638;BME280;47007;49.252;8.904;2024-02-26T03:39:07;97988.03;;;8.13;100.00
10638;BME280;47007;49.252;8.904;2024-02-26T03:39:49;98012.53;;;8.20;100.00
10638;BME280;47007;49.252;8.904;2024-02-26T03:40:31;97996.56;;;8.09;100.00
10638;BME280;47007;49.252;8.904;2024-02-26T03:41:13;98006.50;;;8.13;100.00
10638;BME280;47007;49.252;8.904;2024-02-26T03:41:55;98004.28;;;8.10;100.00
10638;BME280;47007;49.252;8.904;2024-02-26T03:42:37;98003.06;;;8.06;100.00
10638;BME280;47007;49.252;8.904;2024-02-26T03:43:18;97995.81;;;8.02;100.00
10638;BME280;47007;49.252;8.904;2024-02-26T03:44:01;98006.72;;;8.05;100.00
10638;BME280;47007;49.252;8.904;2024-02-26T03:44:43;98000.66;;;8.05;100.00